sensor_id;sensor_type;location;lat;lon;timestamp;P1;durP1;ratioP1;P2;durP2;ratioP2
21183;SDS011;18176;49.502;11.754;2024-02-04T00:02:07;3.80;;;3.30;;
21183;SDS011;18176;49.502;11.754;2024-02-04T00:06:31;3.73;;;3.37;;
21183;SDS011;18176;49.502;11.754;2024-02-04T00:10:54;4.80;;;3.20;;
21183;SDS011;18176;49.502;11.754;2024-02-04T00:15:15;3.80;;;3.40;;
21183;SDS011;18176;49.502;11.754;2024-02-04T00:19:36;4.43;;;3.50;;
21183;SDS011;18176;49.502;11.754;2024-02-04T00:23:56;4.90;;;3.30;;
21183;SDS011;18176;49.502;11.754;2024-02-04T00:28:20;4.30;;;3.30;;
21183;SDS011;18176;49.502;11.754;2024-02-04T00:32:40;3.83;;;3.10;;
21183;SDS011;18176;49.502;11.754;2024-02-04T00:37:01;3.33;;;2.80;;
21183;SDS011;18176;49.502;11.754;2024-02-04T00:41:22;3.17;;;2.87;;
21183;SDS011;18176;49.502;11.754;2024-02-04T00:45:46;4.43;;;3.30;;
21183;SDS011;18176;49.502;11.754;2024-02-04T00:50:07;5.00;;;3.00;;
21183;SDS011;18176;49.502;11.754;2024-02-04T00:54:29;3.73;;;2.63;;
21183;SDS011;18176;49.502;11.754;2024-02-04T00:58:50;3.43;;;2.57;;
21183;SDS011;18176;49.502;11.754;2024-02-04T01:03:13;3.57;;;2.63;;
21183;SDS011;18176;49.502;11.754;2024-02-04T01:07:34;2.50;;;2.30;;
21183;SDS011;18176;49.502;11.754;2024-02-04T01:11:54;3.40;;;2.30;;
21183;SDS011;18176;49.502;11.754;2024-02-04T01:16:15;4.20;;;2.47;;
21183;SDS011;18176;49.502;11.754;2024-02-04T01:20:38;2.27;;;2.07;;
21183;SDS011;18176;49.502;11.754;2024-02-04T01:24:59;1.97;;;1.77;;
21183;SDS011;18176;49.502;11.754;2024-02-04T01:29:19;2.40;;;1.93;;
21183;SDS011;18176;49.502;11.754;2024-02-04T01:33:40;1.80;;;1.70;;
21183;SDS011;18176;49.502;11.754;2024-02-04T01:38:03;2.53;;;1.90;;
21183;SDS011;18176;49.502;11.754;2024-02-04T01:42:24;2.23;;;1.80;;
21183;SDS011;18176;49.502;11.754;2024-02-04T01:46:45;1.97;;;1.77;;
21183;SDS011;18176;49.502;11.754;2024-02-04T01:51:05;2.50;;;1.53;;
21183;SDS011;18176;49.502;11.754;2024-02-04T01:55:29;1.43;;;1.33;;
21183;SDS011;18176;49.502;11.754;2024-02-04T01:59:49;4.07;;;1.60;;
21183;SDS011;18176;49.502;11.754;2024-02-04T02:04:13;1.57;;;1.47;;
21183;SDS011;18176;49.502;11.754;2024-02-04T02:08:34;1.63;;;1.53;;
21183;SDS011;18176;49.502;11.754;2024-02-04T02:12:59;1.93;;;1.60;;
21183;SDS011;18176;49.502;11.754;2024-02-04T02:17:28;1.73;;;1.50;;
21183;SDS011;18176;49.502;11.754;2024-02-04T02:22:06;2.30;;;1.70;;
21183;SDS011;18176;49.502;11.754;2024-02-04T02:26:46;1.70;;;1.60;;
21183;SDS011;18176;49.502;11.754;2024-02-04T02:31:10;1.70;;;1.60;;
21183;SDS011;18176;49.502;11.754;2024-02-04T02:35:30;1.57;;;1.47;;
21183;SDS011;18176;49.502;11.754;2024-02-04T02:39:55;1.63;;;1.53;;
21183;SDS011;18176;49.502;11.754;2024-02-04T02:44:24;2.23;;;1.60;;
21183;SDS011;18176;49.502;11.754;2024-02-04T02:48:46;2.83;;;1.70;;
21183;SDS011;18176;49.502;11.754;2024-02-04T02:53:07;2.03;;;1.50;;
21183;SDS011;18176;49.502;11.754;2024-02-04T02:57:28;1.70;;;1.60;;
21183;SDS011;18176;49.502;11.754;2024-02-04T03:01:52;1.70;;;1.60;;
21183;SDS011;18176;49.502;11.754;2024-02-04T03:06:12;1.80;;;1.70;;
21183;SDS011;18176;49.502;11.754;2024-02-04T03:10:33;2.50;;;1.90;;
21183;SDS011;18176;49.502;11.754;2024-02-04T03:14:54;2.20;;;2.00;;
21183;SDS011;18176;49.502;11.754;2024-02-04T03:19:17;2.37;;;1.90;;
21183;SDS011;18176;49.502;11.754;2024-02-04T03:23:38;2.07;;;1.70;;
21183;SDS011;18176;49.502;11.754;2024-02-04T03:27:59;2.23;;;1.90;;
21183;SDS011;18176;49.502;11.754;2024-02-04T03:32:21;1.90;;;1.70;;
21183;SDS011;18176;49.502;11.754;2024-02-04T03:36:44;2.10;;;1.90;;
21183;SDS011;18176;49.502;11.754;2024-02-04T03:41:05;2.27;;;2.07;;
21183;SDS011;18176;49.502;11.754;2024-02-04T03:45:26;2.37;;;2.17;;
21183;SDS011;18176;49.502;11.754;2024-02-04T03:49:46;3.37;;;2.77;;
21183;SDS011;18176;49.502;11.754;2024-02-04T03:54:10;4.57;;;2.77;;
21183;SDS011;18176;49.502;11.754;2024-02-04T03:58:32;2.83;;;2.53;;
21183;SDS011;18176;49.502;11.754;2024-02-04T04:02:52;4.50;;;2.97;;
21183;SDS011;18176;49.502;11.754;2024-02-04T04:07:13;4.13;;;3.40;;
21183;SDS011;18176;49.502;11.754;2024-02-04T04:11:37;4.60;;;2.87;;
21183;SDS011;18176;49.502;11.754;2024-02-04T04:15:57;4.87;;;3.30;;
21183;SDS011;18176;49.502;11.754;2024-02-04T04:20:18;3.20;;;2.53;;
21183;SDS011;18176;49.502;11.754;2024-02-04T04:24:39;3.17;;;2.83;;
21183;SDS011;18176;49.502;11.754;2024-02-04T04:29:02;4.10;;;2.90;;
21183;SDS011;18176;49.502;11.754;2024-02-04T04:33:23;3.20;;;2.60;;
21183;SDS011;18176;49.502;11.754;2024-02-04T04:37:44;3.30;;;2.63;;
21183;SDS011;18176;49.502;11.754;2024-02-04T04:42:04;4.50;;;2.93;;
21183;SDS011;18176;49.502;11.754;2024-02-04T04:46:28;3.00;;;2.57;;
21183;SDS011;18176;49.502;11.754;2024-02-04T04:50:49;3.37;;;2.80;;
21183;SDS011;18176;49.502;11.754;2024-02-04T04:55:09;3.63;;;2.90;;
21183;SDS011;18176;49.502;11.754;2024-02-04T04:59:31;4.27;;;3.17;;
21183;SDS011;18176;49.502;11.754;2024-02-04T05:03:55;3.43;;;2.80;;
21183;SDS011;18176;49.502;11.754;2024-02-04T05:08:16;3.33;;;3.00;;
21183;SDS011;18176;49.502;11.754;2024-02-04T05:12:36;4.37;;;2.93;;
21183;SDS011;18176;49.502;11.754;2024-02-04T05:16:57;4.57;;;3.13;;
21183;SDS011;18176;49.502;11.754;2024-02-04T05:21:20;3.70;;;3.30;;
21183;SDS011;18176;49.502;11.754;2024-02-04T05:25:41;4.67;;;3.40;;
21183;SDS011;18176;49.502;11.754;2024-02-04T05:30:02;5.10;;;3.73;;
21183;SDS011;18176;49.502;11.754;2024-02-04T05:34:24;4.30;;;3.50;;
21183;SDS011;18176;49.502;11.754;2024-02-04T05:38:50;3.83;;;3.30;;
21183;SDS011;18176;49.502;11.754;2024-02-04T05:43:10;5.40;;;3.80;;
21183;SDS011;18176;49.502;11.754;2024-02-04T05:47:33;3.77;;;3.00;;
21183;SDS011;18176;49.502;11.754;2024-02-04T05:51:53;3.27;;;2.50;;
21183;SDS011;18176;49.502;11.754;2024-02-04T05:56:17;1.73;;;1.63;;
21183;SDS011;18176;49.502;11.754;2024-02-04T06:00:37;2.10;;;1.60;;
21183;SDS011;18176;49.502;11.754;2024-02-04T06:05:01;3.33;;;1.50;;
21183;SDS011;18176;49.502;11.754;2024-02-04T06:09:22;1.40;;;1.30;;
21183;SDS011;18176;49.502;11.754;2024-02-04T06:13:48;1.83;;;1.33;;
21183;SDS011;18176;49.502;11.754;2024-02-04T06:18:09;2.50;;;1.30;;
21183;SDS011;18176;49.502;11.754;2024-02-04T06:22:30;9.80;;;5.57;;
21183;SDS011;18176;49.502;11.754;2024-02-04T06:26:50;1.90;;;1.70;;
21183;SDS011;18176;49.502;11.754;2024-02-04T06:31:13;1.20;;;1.10;;
21183;SDS011;18176;49.502;11.754;2024-02-04T06:35:38;1.43;;;1.00;;
21183;SDS011;18176;49.502;11.754;2024-02-04T06:39:58;1.10;;;0.90;;
21183;SDS011;18176;49.502;11.754;2024-02-04T06:44:19;2.53;;;1.10;;
21183;SDS011;18176;49.502;11.754;2024-02-04T06:48:43;0.80;;;0.80;;
21183;SDS011;18176;49.502;11.754;2024-02-04T06:53:03;1.43;;;1.00;;
21183;SDS011;18176;49.502;11.754;2024-02-04T06:57:24;1.80;;;1.07;;
21183;SDS011;18176;49.502;11.754;2024-02-04T07:01:45;1.07;;;0.77;;
21183;SDS011;18176;49.502;11.754;2024-02-04T07:06:08;2.43;;;0.80;;
21183;SDS011;18176;49.502;11.754;2024-02-04T07:10:29;0.80;;;0.80;;
21183;SDS011;18176;49.502;11.754;2024-02-04T07:14:49;0.93;;;0.90;;
21183;SDS011;18176;49.502;11.754;2024-02-04T07:19:10;1.20;;;0.90;;
21183;SDS011;18176;49.502;11.754;2024-02-04T07:23:33;1.63;;;0.90;;
21183;SDS011;18176;49.502;11.754;2024-02-04T07:27:54;1.27;;;1.00;;
21183;SDS011;18176;49.502;11.754;2024-02-04T07:32:15;1.30;;;1.20;;
21183;SDS011;18176;49.502;11.754;2024-02-04T07:36:38;1.27;;;1.17;;
21183;SDS011;18176;49.502;11.754;2024-02-04T07:41:03;1.90;;;0.97;;
21183;SDS011;18176;49.502;11.754;2024-02-04T07:45:24;1.00;;;0.90;;
21183;SDS011;18176;49.502;11.754;2024-02-04T07:49:46;0.90;;;0.90;;
21183;SDS011;18176;49.502;11.754;2024-02-04T07:54:07;1.20;;;1.00;;
21183;SDS011;18176;49.502;11.754;2024-02-04T07:58:30;2.60;;;1.47;;
21183;SDS011;18176;49.502;11.754;2024-02-04T08:02:51;1.47;;;1.20;;
21183;SDS011;18176;49.502;11.754;2024-02-04T08:07:12;1.67;;;1.33;;
21183;SDS011;18176;49.502;11.754;2024-02-04T08:11:34;2.60;;;1.50;;
21183;SDS011;18176;49.502;11.754;2024-02-04T08:15:57;3.00;;;2.10;;
21183;SDS011;18176;49.502;11.754;2024-02-04T08:20:18;1.77;;;1.47;;
21183;SDS011;18176;49.502;11.754;2024-02-04T08:24:39;3.33;;;1.40;;
21183;SDS011;18176;49.502;11.754;2024-02-04T08:29:00;2.00;;;1.20;;
21183;SDS011;18176;49.502;11.754;2024-02-04T08:33:24;1.57;;;1.23;;
21183;SDS011;18176;49.502;11.754;2024-02-04T08:37:45;1.47;;;1.00;;
21183;SDS011;18176;49.502;11.754;2024-02-04T08:42:06;2.17;;;1.30;;
21183;SDS011;18176;49.502;11.754;2024-02-04T08:46:26;3.30;;;1.83;;
21183;SDS011;18176;49.502;11.754;2024-02-04T08:50:50;4.20;;;1.50;;
21183;SDS011;18176;49.502;11.754;2024-02-04T08:55:11;3.47;;;1.97;;
21183;SDS011;18176;49.502;11.754;2024-02-04T08:59:32;3.10;;;1.70;;
21183;SDS011;18176;49.502;11.754;2024-02-04T09:03:53;2.80;;;1.63;;
21183;SDS011;18176;49.502;11.754;2024-02-04T09:08:16;1.87;;;1.43;;
21183;SDS011;18176;49.502;11.754;2024-02-04T09:12:36;3.70;;;1.80;;
21183;SDS011;18176;49.502;11.754;2024-02-04T09:17:01;2.33;;;1.57;;
21183;SDS011;18176;49.502;11.754;2024-02-04T09:21:23;1.43;;;1.30;;
21183;SDS011;18176;49.502;11.754;2024-02-04T09:25:47;2.57;;;1.77;;
21183;SDS011;18176;49.502;11.754;2024-02-04T09:30:08;1.50;;;1.40;;
21183;SDS011;18176;49.502;11.754;2024-02-04T09:34:30;4.30;;;2.47;;
21183;SDS011;18176;49.502;11.754;2024-02-04T09:38:51;3.70;;;2.20;;
21183;SDS011;18176;49.502;11.754;2024-02-04T09:43:15;1.80;;;1.50;;
21183;SDS011;18176;49.502;11.754;2024-02-04T09:47:36;2.93;;;2.00;;
21183;SDS011;18176;49.502;11.754;2024-02-04T09:52:00;3.10;;;1.40;;
21183;SDS011;18176;49.502;11.754;2024-02-04T09:56:27;2.00;;;1.80;;
21183;SDS011;18176;49.502;11.754;2024-02-04T10:00:53;1.70;;;1.60;;
21183;SDS011;18176;49.502;11.754;2024-02-04T10:05:14;1.63;;;1.53;;
21183;SDS011;18176;49.502;11.754;2024-02-04T10:09:35;2.10;;;1.90;;
21183;SDS011;18176;49.502;11.754;2024-02-04T10:13:57;2.40;;;1.90;;
21183;SDS011;18176;49.502;11.754;2024-02-04T10:18:20;1.37;;;0.90;;
21183;SDS011;18176;49.502;11.754;2024-02-04T10:22:43;1.10;;;1.00;;
21183;SDS011;18176;49.502;11.754;2024-02-04T10:27:04;3.90;;;1.30;;
21183;SDS011;18176;49.502;11.754;2024-02-04T10:31:34;3.37;;;1.90;;
21183;SDS011;18176;49.502;11.754;2024-02-04T10:35:57;1.43;;;1.00;;
21183;SDS011;18176;49.502;11.754;2024-02-04T10:40:18;0.70;;;0.70;;
21183;SDS011;18176;49.502;11.754;2024-02-04T10:44:39;1.27;;;0.60;;
21183;SDS011;18176;49.502;11.754;2024-02-04T10:49:08;0.93;;;0.87;;
21183;SDS011;18176;49.502;11.754;2024-02-04T10:53:37;1.30;;;1.20;;
21183;SDS011;18176;49.502;11.754;2024-02-04T10:58:01;1.97;;;1.37;;
21183;SDS011;18176;49.502;11.754;2024-02-04T11:02:23;1.30;;;1.20;;
21183;SDS011;18176;49.502;11.754;2024-02-04T11:06:46;4.00;;;3.00;;
21183;SDS011;18176;49.502;11.754;2024-02-04T11:11:10;1.03;;;0.93;;
21183;SDS011;18176;49.502;11.754;2024-02-04T11:15:33;1.00;;;0.90;;
21183;SDS011;18176;49.502;11.754;2024-02-04T11:20:06;1.47;;;0.90;;
21183;SDS011;18176;49.502;11.754;2024-02-04T11:24:51;1.00;;;0.90;;
21183;SDS011;18176;49.502;11.754;2024-02-04T11:29:29;0.80;;;0.80;;
21183;SDS011;18176;49.502;11.754;2024-02-04T11:33:52;1.30;;;0.80;;
21183;SDS011;18176;49.502;11.754;2024-02-04T11:38:16;10.27;;;4.33;;
21183;SDS011;18176;49.502;11.754;2024-02-04T11:42:37;7.30;;;3.70;;
21183;SDS011;18176;49.502;11.754;2024-02-04T11:47:01;0.50;;;0.50;;
21183;SDS011;18176;49.502;11.754;2024-02-04T11:51:21;1.27;;;0.70;;
21183;SDS011;18176;49.502;11.754;2024-02-04T11:55:44;1.10;;;0.70;;
21183;SDS011;18176;49.502;11.754;2024-02-04T12:00:06;1.00;;;0.73;;
21183;SDS011;18176;49.502;11.754;2024-02-04T12:04:31;0.60;;;0.50;;
21183;SDS011;18176;49.502;11.754;2024-02-04T12:08:51;0.80;;;0.80;;
21183;SDS011;18176;49.502;11.754;2024-02-04T12:13:12;0.70;;;0.70;;
21183;SDS011;18176;49.502;11.754;2024-02-04T12:17:33;1.27;;;0.60;;
21183;SDS011;18176;49.502;11.754;2024-02-04T12:21:56;1.03;;;0.90;;
21183;SDS011;18176;49.502;11.754;2024-02-04T12:26:18;2.40;;;1.20;;
21183;SDS011;18176;49.502;11.754;2024-02-04T12:30:39;1.30;;;1.00;;
21183;SDS011;18176;49.502;11.754;2024-02-04T12:35:00;0.60;;;0.60;;
21183;SDS011;18176;49.502;11.754;2024-02-04T12:39:23;1.13;;;1.00;;
21183;SDS011;18176;49.502;11.754;2024-02-04T12:43:47;1.50;;;1.17;;
21183;SDS011;18176;49.502;11.754;2024-02-04T12:48:10;1.10;;;1.00;;
21183;SDS011;18176;49.502;11.754;2024-02-04T12:52:40;1.10;;;1.00;;
21183;SDS011;18176;49.502;11.754;2024-02-04T12:57:03;1.13;;;1.03;;
21183;SDS011;18176;49.502;11.754;2024-02-04T13:01:24;1.10;;;1.00;;
21183;SDS011;18176;49.502;11.754;2024-02-04T13:05:45;0.50;;;0.50;;
21183;SDS011;18176;49.502;11.754;2024-02-04T13:10:06;1.07;;;0.93;;
21183;SDS011;18176;49.502;11.754;2024-02-04T13:14:31;1.50;;;1.00;;
21183;SDS011;18176;49.502;11.754;2024-02-04T13:18:52;0.70;;;0.70;;
21183;SDS011;18176;49.502;11.754;2024-02-04T13:23:13;1.20;;;0.90;;
21183;SDS011;18176;49.502;11.754;2024-02-04T13:27:34;0.87;;;0.80;;
21183;SDS011;18176;49.502;11.754;2024-02-04T13:31:57;2.00;;;1.10;;
21183;SDS011;18176;49.502;11.754;2024-02-04T13:36:18;0.80;;;0.70;;
21183;SDS011;18176;49.502;11.754;2024-02-04T13:40:38;0.60;;;0.60;;
21183;SDS011;18176;49.502;11.754;2024-02-04T13:44:59;1.60;;;1.30;;
21183;SDS011;18176;49.502;11.754;2024-02-04T13:49:23;1.27;;;1.03;;
21183;SDS011;18176;49.502;11.754;2024-02-04T13:53:44;1.77;;;0.97;;
21183;SDS011;18176;49.502;11.754;2024-02-04T13:58:04;0.70;;;0.70;;
21183;SDS011;18176;49.502;11.754;2024-02-04T14:02:25;0.60;;;0.60;;
21183;SDS011;18176;49.502;11.754;2024-02-04T14:06:49;0.60;;;0.50;;
21183;SDS011;18176;49.502;11.754;2024-02-04T14:11:10;0.73;;;0.73;;
21183;SDS011;18176;49.502;11.754;2024-02-04T14:15:30;1.30;;;1.00;;
21183;SDS011;18176;49.502;11.754;2024-02-04T14:19:51;1.00;;;0.80;;
21183;SDS011;18176;49.502;11.754;2024-02-04T14:24:17;0.70;;;0.70;;
21183;SDS011;18176;49.502;11.754;2024-02-04T14:28:37;0.70;;;0.70;;
21183;SDS011;18176;49.502;11.754;2024-02-04T14:32:58;1.80;;;0.60;;
21183;SDS011;18176;49.502;11.754;2024-02-04T14:37:20;0.87;;;0.70;;
21183;SDS011;18176;49.502;11.754;2024-02-04T14:41:43;1.97;;;1.73;;
21183;SDS011;18176;49.502;11.754;2024-02-04T14:46:05;5.67;;;2.47;;
21183;SDS011;18176;49.502;11.754;2024-02-04T14:50:26;1.77;;;1.47;;
21183;SDS011;18176;49.502;11.754;2024-02-04T14:54:48;2.07;;;1.27;;
21183;SDS011;18176;49.502;11.754;2024-02-04T14:59:11;1.40;;;1.10;;
21183;SDS011;18176;49.502;11.754;2024-02-04T15:03:38;3.10;;;1.97;;
21183;SDS011;18176;49.502;11.754;2024-02-04T15:07:59;1.40;;;1.20;;
21183;SDS011;18176;49.502;11.754;2024-02-04T15:12:21;2.83;;;1.97;;
21183;SDS011;18176;49.502;11.754;2024-02-04T15:16:45;3.83;;;1.50;;
21183;SDS011;18176;49.502;11.754;2024-02-04T15:21:07;1.70;;;1.60;;
21183;SDS011;18176;49.502;11.754;2024-02-04T15:25:29;3.53;;;1.60;;
21183;SDS011;18176;49.502;11.754;2024-02-04T15:29:50;0.70;;;0.70;;
21183;SDS011;18176;49.502;11.754;2024-02-04T15:34:14;0.87;;;0.87;;
21183;SDS011;18176;49.502;11.754;2024-02-04T15:38:36;1.30;;;1.10;;
21183;SDS011;18176;49.502;11.754;2024-02-04T15:42:57;2.70;;;1.33;;
21183;SDS011;18176;49.502;11.754;2024-02-04T15:47:17;1.47;;;1.30;;
21183;SDS011;18176;49.502;11.754;2024-02-04T15:51:42;1.50;;;1.30;;
21183;SDS011;18176;49.502;11.754;2024-02-04T15:56:04;1.43;;;1.17;;
21183;SDS011;18176;49.502;11.754;2024-02-04T16:00:26;1.20;;;1.10;;
21183;SDS011;18176;49.502;11.754;2024-02-04T16:04:48;0.90;;;0.90;;
21183;SDS011;18176;49.502;11.754;2024-02-04T16:09:13;3.60;;;1.30;;
21183;SDS011;18176;49.502;11.754;2024-02-04T16:13:36;1.57;;;1.30;;
21183;SDS011;18176;49.502;11.754;2024-02-04T16:17:58;2.10;;;1.10;;
21183;SDS011;18176;49.502;11.754;2024-02-04T16:22:20;2.10;;;1.00;;
21183;SDS011;18176;49.502;11.754;2024-02-04T16:26:43;1.40;;;1.30;;
21183;SDS011;18176;49.502;11.754;2024-02-04T16:31:04;1.27;;;1.17;;
21183;SDS011;18176;49.502;11.754;2024-02-04T16:35:24;1.97;;;1.50;;
21183;SDS011;18176;49.502;11.754;2024-02-04T16:39:45;1.50;;;1.40;;
21183;SDS011;18176;49.502;11.754;2024-02-04T16:44:08;2.20;;;1.60;;
21183;SDS011;18176;49.502;11.754;2024-02-04T16:48:31;3.90;;;1.80;;
21183;SDS011;18176;49.502;11.754;2024-02-04T16:52:51;2.30;;;1.87;;
21183;SDS011;18176;49.502;11.754;2024-02-04T16:57:12;1.50;;;1.40;;
21183;SDS011;18176;49.502;11.754;2024-02-04T17:01:35;1.83;;;1.53;;
21183;SDS011;18176;49.502;11.754;2024-02-04T17:05:56;2.80;;;1.50;;
21183;SDS011;18176;49.502;11.754;2024-02-04T17:10:18;1.40;;;1.30;;
21183;SDS011;18176;49.502;11.754;2024-02-04T17:14:39;1.40;;;1.30;;
21183;SDS011;18176;49.502;11.754;2024-02-04T17:19:06;1.63;;;1.27;;
21183;SDS011;18176;49.502;11.754;2024-02-04T17:23:40;1.53;;;1.40;;
21183;SDS011;18176;49.502;11.754;2024-02-04T17:28:06;1.90;;;1.50;;
21183;SDS011;18176;49.502;11.754;2024-02-04T17:32:31;1.43;;;1.33;;
21183;SDS011;18176;49.502;11.754;2024-02-04T17:36:56;1.30;;;1.20;;
21183;SDS011;18176;49.502;11.754;2024-02-04T17:41:17;2.33;;;1.80;;
21183;SDS011;18176;49.502;11.754;2024-02-04T17:45:38;1.60;;;1.50;;
21183;SDS011;18176;49.502;11.754;2024-02-04T17:49:58;2.43;;;1.43;;
21183;SDS011;18176;49.502;11.754;2024-02-04T17:54:22;2.77;;;2.37;;
21183;SDS011;18176;49.502;11.754;2024-02-04T17:58:44;1.53;;;1.43;;
21183;SDS011;18176;49.502;11.754;2024-02-04T18:03:06;1.70;;;1.53;;
21183;SDS011;18176;49.502;11.754;2024-02-04T18:07:27;1.80;;;1.70;;
21183;SDS011;18176;49.502;11.754;2024-02-04T18:11:50;2.00;;;1.80;;
21183;SDS011;18176;49.502;11.754;2024-02-04T18:16:11;2.20;;;2.00;;
21183;SDS011;18176;49.502;11.754;2024-02-04T18:20:32;2.17;;;1.90;;
21183;SDS011;18176;49.502;11.754;2024-02-04T18:24:52;2.20;;;2.00;;
21183;SDS011;18176;49.502;11.754;2024-02-04T18:29:16;2.20;;;1.40;;
21183;SDS011;18176;49.502;11.754;2024-02-04T18:33:37;2.30;;;1.60;;
21183;SDS011;18176;49.502;11.754;2024-02-04T18:37:58;2.20;;;1.60;;
21183;SDS011;18176;49.502;11.754;2024-02-04T18:42:18;1.40;;;1.30;;
21183;SDS011;18176;49.502;11.754;2024-02-04T18:46:42;1.53;;;1.30;;
21183;SDS011;18176;49.502;11.754;2024-02-04T18:51:05;1.90;;;1.30;;
21183;SDS011;18176;49.502;11.754;2024-02-04T18:55:26;2.07;;;1.83;;
21183;SDS011;18176;49.502;11.754;2024-02-04T18:59:48;2.50;;;1.43;;
21183;SDS011;18176;49.502;11.754;2024-02-04T19:04:11;1.87;;;1.70;;
21183;SDS011;18176;49.502;11.754;2024-02-04T19:08:32;2.00;;;1.70;;
21183;SDS011;18176;49.502;11.754;2024-02-04T19:12:53;2.00;;;1.80;;
21183;SDS011;18176;49.502;11.754;2024-02-04T19:17:13;1.40;;;1.30;;
21183;SDS011;18176;49.502;11.754;2024-02-04T19:21:43;1.40;;;1.30;;
21183;SDS011;18176;49.502;11.754;2024-02-04T19:26:05;2.80;;;1.53;;
21183;SDS011;18176;49.502;11.754;2024-02-04T19:30:28;2.20;;;1.67;;
21183;SDS011;18176;49.502;11.754;2024-02-04T19:34:52;1.53;;;1.40;;
21183;SDS011;18176;49.502;11.754;2024-02-04T19:39:15;1.40;;;1.30;;
21183;SDS011;18176;49.502;11.754;2024-02-04T19:43:36;3.57;;;1.60;;
21183;SDS011;18176;49.502;11.754;2024-02-04T19:47:58;1.73;;;1.60;;
21183;SDS011;18176;49.502;11.754;2024-02-04T19:52:22;2.97;;;1.60;;
21183;SDS011;18176;49.502;11.754;2024-02-04T19:56:45;1.87;;;1.60;;
21183;SDS011;18176;49.502;11.754;2024-02-04T20:01:05;1.40;;;1.30;;
21183;SDS011;18176;49.502;11.754;2024-02-04T20:05:26;1.20;;;1.10;;
21183;SDS011;18176;49.502;11.754;2024-02-04T20:09:47;1.30;;;1.20;;
21183;SDS011;18176;49.502;11.754;2024-02-04T20:14:10;1.30;;;1.20;;
21183;SDS011;18176;49.502;11.754;2024-02-04T20:18:31;1.37;;;1.27;;
21183;SDS011;18176;49.502;11.754;2024-02-04T20:22:52;1.77;;;1.37;;
21183;SDS011;18176;49.502;11.754;2024-02-04T20:27:14;3.77;;;1.90;;
21183;SDS011;18176;49.502;11.754;2024-02-04T20:31:37;1.43;;;1.17;;
21183;SDS011;18176;49.502;11.754;2024-02-04T20:36:04;1.43;;;1.30;;
21183;SDS011;18176;49.502;11.754;2024-02-04T20:40:25;1.40;;;1.30;;
21183;SDS011;18176;49.502;11.754;2024-02-04T20:44:46;1.47;;;1.30;;
21183;SDS011;18176;49.502;11.754;2024-02-04T20:49:09;1.67;;;1.40;;
21183;SDS011;18176;49.502;11.754;2024-02-04T20:53:30;1.47;;;1.37;;
21183;SDS011;18176;49.502;11.754;2024-02-04T20:57:51;1.50;;;1.40;;
21183;SDS011;18176;49.502;11.754;2024-02-04T21:02:12;2.10;;;1.73;;
21183;SDS011;18176;49.502;11.754;2024-02-04T21:06:35;1.70;;;1.50;;
21183;SDS011;18176;49.502;11.754;2024-02-04T21:10:56;1.60;;;1.50;;
21183;SDS011;18176;49.502;11.754;2024-02-04T21:15:17;1.30;;;1.20;;
21183;SDS011;18176;49.502;11.754;2024-02-04T21:19:38;1.23;;;1.13;;
21183;SDS011;18176;49.502;11.754;2024-02-04T21:24:02;1.70;;;1.50;;
21183;SDS011;18176;49.502;11.754;2024-02-04T21:28:23;2.93;;;1.80;;
21183;SDS011;18176;49.502;11.754;2024-02-04T21:32:44;2.43;;;1.43;;
21183;SDS011;18176;49.502;11.754;2024-02-04T21:37:06;2.53;;;1.60;;
21183;SDS011;18176;49.502;11.754;2024-02-04T21:41:30;2.17;;;1.20;;
21183;SDS011;18176;49.502;11.754;2024-02-04T21:45:54;1.90;;;1.57;;
21183;SDS011;18176;49.502;11.754;2024-02-04T21:50:15;1.47;;;1.23;;
21183;SDS011;18176;49.502;11.754;2024-02-04T21:54:36;1.67;;;1.33;;
21183;SDS011;18176;49.502;11.754;2024-02-04T21:58:59;1.10;;;1.00;;
21183;SDS011;18176;49.502;11.754;2024-02-04T22:03:20;1.27;;;1.17;;
21183;SDS011;18176;49.502;11.754;2024-02-04T22:07:40;1.30;;;1.20;;
21183;SDS011;18176;49.502;11.754;2024-02-04T22:12:01;1.40;;;1.30;;
21183;SDS011;18176;49.502;11.754;2024-02-04T22:16:25;1.50;;;1.40;;
21183;SDS011;18176;49.502;11.754;2024-02-04T22:20:45;1.53;;;1.30;;
21183;SDS011;18176;49.502;11.754;2024-02-04T22:25:06;1.60;;;1.30;;
21183;SDS011;18176;49.502;11.754;2024-02-04T22:29:31;3.27;;;1.70;;
21183;SDS011;18176;49.502;11.754;2024-02-04T22:33:54;1.50;;;1.40;;
21183;SDS011;18176;49.502;11.754;2024-02-04T22:38:15;1.33;;;1.23;;
21183;SDS011;18176;49.502;11.754;2024-02-04T22:42:36;1.80;;;1.27;;
21183;SDS011;18176;49.502;11.754;2024-02-04T22:46:56;3.10;;;1.40;;
21183;SDS011;18176;49.502;11.754;2024-02-04T22:51:20;3.03;;;1.23;;
21183;SDS011;18176;49.502;11.754;2024-02-04T22:55:40;1.30;;;1.20;;
21183;SDS011;18176;49.502;11.754;2024-02-04T23:00:01;1.97;;;1.63;;
21183;SDS011;18176;49.502;11.754;2024-02-04T23:04:27;1.40;;;1.27;;
21183;SDS011;18176;49.502;11.754;2024-02-04T23:08:55;1.40;;;1.30;;
21183;SDS011;18176;49.502;11.754;2024-02-04T23:13:16;1.30;;;1.20;;
21183;SDS011;18176;49.502;11.754;2024-02-04T23:17:37;1.60;;;1.50;;
21183;SDS011;18176;49.502;11.754;2024-02-04T23:21:58;1.40;;;1.30;;
21183;SDS011;18176;49.502;11.754;2024-02-04T23:26:21;1.60;;;1.50;;
21183;SDS011;18176;49.502;11.754;2024-02-04T23:30:42;1.80;;;1.60;;
21183;SDS011;18176;49.502;11.754;2024-02-04T23:35:02;2.07;;;1.80;;
21183;SDS011;18176;49.502;11.754;2024-02-04T23:39:25;1.50;;;1.40;;
21183;SDS011;18176;49.502;11.754;2024-02-04T23:43:48;1.90;;;1.43;;
21183;SDS011;18176;49.502;11.754;2024-02-04T23:48:09;1.70;;;1.60;;
21183;SDS011;18176;49.502;11.754;2024-02-04T23:52:30;1.70;;;1.60;;
21183;SDS011;18176;49.502;11.754;2024-02-04T23:56:50;1.50;;;1.40;;
